Time;durP1;ratioP1;P1;durP2;ratioP2;P2;SDS_P1;SDS_P2;PMS_P1;PMS_P2;Temp;Humidity;BMP_temperature;BMP_pressure;BME280_temperature;BME280_humidity;BME280_pressure;Samples;Min_cycle;Max_cycle;Signal;HPM_P1;HPM_P2
2021/10/13 00:00:58;;;;;;;0.20;0.20;;;;;;;3.39;100.00;101339.09;5048760;28;20067;-80
2021/10/13 00:03:32;;;;;;;0.10;0.10;;;;;;;3.36;100.00;101340.34;5048267;28;20520;-80
2021/10/13 00:06:05;;;;;;;0.20;0.20;;;;;;;3.29;100.00;101320.72;5045624;28;20095;-79
2021/10/13 00:08:39;;;;;;;0.20;0.20;;;;;;;3.37;100.00;101335.75;5063442;28;20048;-79
2021/10/13 00:11:08;;;;;;;0.22;0.22;;;;;;;3.31;100.00;101339.34;5052389;28;20071;-82
2021/10/13 00:13:41;;;;;;;0.17;0.17;;;;;;;3.32;100.00;101332.91;5061794;28;20397;-79
2021/10/13 00:16:15;;;;;;;0.10;0.10;;;;;;;3.27;100.00;101336.22;5047594;28;20052;-80
2021/10/13 00:18:48;;;;;;;0.20;0.20;;;;;;;3.22;100.00;101341.44;5067929;28;20036;-80
2021/10/13 00:21:21;;;;;;;0.20;0.20;;;;;;;3.26;100.00;101341.84;5070858;28;20486;-79
2021/10/13 00:23:54;;;;;;;0.20;0.20;;;;;;;3.21;100.00;101345.19;5061618;28;20049;-81
2021/10/13 00:26:29;;;;;;;0.20;0.20;;;;;;;3.23;100.00;101343.06;5051636;28;20528;-80
2021/10/13 00:29:02;;;;;;;0.20;0.20;;;;;;;3.16;100.00;101342.28;5052934;28;20477;-81
2021/10/13 00:31:35;;;;;;;0.20;0.20;;;;;;;3.19;100.00;101353.47;5069888;28;20404;-79
2021/10/13 00:34:03;;;;;;;0.20;0.20;;;;;;;3.22;100.00;101344.97;5044429;28;20504;-80
2021/10/13 00:36:31;;;;;;;0.20;0.20;;;;;;;3.26;100.00;101355.28;5067500;28;20059;-80
2021/10/13 00:38:59;;;;;;;0.20;0.20;;;;;;;3.25;100.00;101353.66;5050732;28;20052;-81
2021/10/13 00:41:34;;;;;;;0.20;0.20;;;;;;;3.23;100.00;101345.78;5049003;28;20507;-80
2021/10/13 00:44:07;;;;;;;0.10;0.10;;;;;;;3.22;100.00;101353.03;5051690;28;20044;-82
2021/10/13 00:46:35;;;;;;;0.20;0.20;;;;;;;3.25;100.00;101356.34;5045644;28;20794;-80
2021/10/13 00:49:09;;;;;;;0.20;0.20;;;;;;;3.25;100.00;101359.84;5071074;28;20044;-80
2021/10/13 00:51:43;;;;;;;0.10;0.10;;;;;;;3.22;100.00;101358.41;5050163;28;20057;-81
2021/10/13 00:54:16;;;;;;;0.20;0.20;;;;;;;3.15;100.00;101352.25;5049177;28;20048;-79
2021/10/13 00:56:45;;;;;;;0.20;0.20;;;;;;;3.15;100.00;101360.31;5065450;28;20053;-80
2021/10/13 00:59:19;;;;;;;0.20;0.20;;;;;;;3.18;100.00;101359.06;5045335;28;20041;-82
2021/10/13 01:01:53;;;;;;;0.20;0.20;;;;;;;3.20;100.00;101360.50;5068404;28;20389;-81
2021/10/13 01:04:39;;;;;;;0.20;0.20;;;;;;;3.14;100.00;101352.47;5070045;28;20040;-79
2021/10/13 01:07:23;;;;;;;0.20;0.20;;;;;;;3.15;100.00;101356.78;5048759;28;20060;-79
2021/10/13 01:10:02;;;;;;;0.20;0.20;;;;;;;3.11;100.00;101353.69;5047838;28;20395;-82
2021/10/13 01:12:51;;;;;;;0.10;0.10;;;;;;;3.18;100.00;101354.50;5061777;28;20040;-80
2021/10/13 01:15:33;;;;;;;0.10;0.10;;;;;;;3.11;100.00;101355.56;5061780;28;20028;-80
2021/10/13 01:18:11;;;;;;;0.20;0.20;;;;;;;3.09;100.00;101357.63;5064623;28;20071;-80
2021/10/13 01:20:56;;;;;;;0.10;0.10;;;;;;;3.02;100.00;101352.28;5067848;28;20040;-80
2021/10/13 01:24:03;;;;;;;0.20;0.20;;;;;;;3.01;100.00;101358.69;5044463;28;20052;-80
2021/10/13 01:26:37;;;;;;;0.20;0.20;;;;;;;2.97;100.00;101363.69;5051029;28;20048;-79
2021/10/13 01:29:16;;;;;;;0.15;0.15;;;;;;;3.03;100.00;101365.50;5063960;28;20045;-80
2021/10/13 01:31:54;;;;;;;0.20;0.20;;;;;;;2.96;100.00;101361.22;5066367;28;20064;-80
2021/10/13 01:34:30;;;;;;;0.20;0.20;;;;;;;2.99;100.00;101358.91;5065141;28;20045;-81
2021/10/13 01:37:07;;;;;;;0.20;0.20;;;;;;;2.99;100.00;101358.91;5062746;28;20485;-79
2021/10/13 01:39:43;;;;;;;0.22;0.22;;;;;;;2.95;100.00;101351.50;5041044;28;20053;-81
2021/10/13 01:42:18;;;;;;;0.22;0.20;;;;;;;2.97;100.00;101358.31;5042523;28;20060;-79
2021/10/13 01:44:56;;;;;;;0.20;0.20;;;;;;;2.97;100.00;101354.78;5049626;28;20056;-79
2021/10/13 01:47:32;;;;;;;0.20;0.20;;;;;;;2.95;100.00;101359.56;5047637;28;20060;-79
2021/10/13 01:50:01;;;;;;;0.10;0.10;;;;;;;2.95;100.00;101370.31;5052654;28;20401;-79
2021/10/13 01:52:37;;;;;;;0.20;0.20;;;;;;;2.81;100.00;101370.34;5069186;28;20049;-80
2021/10/13 01:55:12;;;;;;;0.20;0.20;;;;;;;2.85;100.00;101376.13;5048903;28;20049;-81
2021/10/13 01:57:48;;;;;;;0.20;0.20;;;;;;;2.72;100.00;101369.75;5066916;28;20036;-80
2021/10/13 02:00:20;;;;;;;0.20;0.20;;;;;;;2.80;100.00;101384.81;5053253;28;20048;-79
2021/10/13 02:02:54;;;;;;;;;;;;;;;2.84;100.00;101374.47;5071726;28;20051;-80
2021/10/13 02:05:27;;;;;;;0.20;0.20;;;;;;;2.71;100.00;101362.72;5048834;28;19924;-80
2021/10/13 02:08:02;;;;;;;0.20;0.20;;;;;;;2.79;100.00;101379.66;5069312;28;20396;-82
2021/10/13 02:10:31;;;;;;;0.20;0.20;;;;;;;2.79;100.00;101382.34;5071198;28;20384;-81
2021/10/13 02:13:07;;;;;;;0.20;0.20;;;;;;;2.78;100.00;101373.47;5044113;28;20049;-80
2021/10/13 02:15:45;;;;;;;0.20;0.20;;;;;;;2.68;100.00;101365.84;5051873;28;20053;-79
2021/10/13 02:18:22;;;;;;;0.30;0.30;;;;;;;2.62;100.00;101374.72;5067909;28;20044;-80
2021/10/13 02:20:56;;;;;;;0.20;0.20;;;;;;;2.67;100.00;101377.63;5068332;28;20052;-79
2021/10/13 02:23:33;;;;;;;0.20;0.20;;;;;;;2.71;100.00;101386.09;5051631;28;20052;-79
2021/10/13 02:26:11;;;;;;;0.20;0.20;;;;;;;2.69;100.00;101391.69;5070589;28;20471;-79
2021/10/13 02:28:50;;;;;;;0.20;0.20;;;;;;;2.69;100.00;101386.31;5047969;28;20045;-83
2021/10/13 02:31:25;;;;;;;0.20;0.20;;;;;;;2.69;100.00;101396.22;5051182;28;20040;-82
2021/10/13 02:33:58;;;;;;;0.20;0.20;;;;;;;2.65;100.00;101398.50;5072249;28;20044;-80
2021/10/13 02:36:32;;;;;;;0.20;0.20;;;;;;;2.63;100.00;101394.38;5047553;28;20422;-80
2021/10/13 02:39:06;;;;;;;0.20;0.20;;;;;;;2.58;100.00;101402.22;5066427;28;20055;-81
2021/10/13 02:41:40;;;;;;;0.10;0.10;;;;;;;2.61;100.00;101408.03;5044502;28;20056;-82
2021/10/13 02:44:15;;;;;;;0.20;0.20;;;;;;;2.64;100.00;101406.78;5069425;28;20045;-81
2021/10/13 02:46:56;;;;;;;0.20;0.20;;;;;;;2.54;100.00;101391.06;5067538;28;20044;-83
2021/10/13 02:49:34;;;;;;;0.20;0.20;;;;;;;2.60;100.00;101394.81;5070711;28;20033;-80
2021/10/13 02:52:14;;;;;;;0.20;0.20;;;;;;;2.58;100.00;101396.84;5070346;28;20499;-80
2021/10/13 02:54:54;;;;;;;0.17;0.17;;;;;;;2.57;100.00;101403.25;5047089;28;20064;-80
2021/10/13 02:57:34;;;;;;;0.10;0.10;;;;;;;2.58;100.00;101405.72;5065321;28;20048;-82
2021/10/13 03:00:10;;;;;;;0.20;0.20;;;;;;;2.60;100.00;101409.06;5047591;28;20044;-81
2021/10/13 03:02:50;;;;;;;0.10;0.10;;;;;;;2.57;100.00;101398.72;5052669;28;20052;-80
2021/10/13 03:05:22;;;;;;;0.20;0.20;;;;;;;2.50;100.00;101387.97;5067023;28;20051;-79
2021/10/13 03:07:58;;;;;;;0.20;0.20;;;;;;;2.62;100.00;101412.34;5071344;28;20049;-79
2021/10/13 03:10:33;;;;;;;0.15;0.15;;;;;;;2.55;100.00;101403.47;5049087;28;20050;-80
2021/10/13 03:13:04;;;;;;;0.10;0.10;;;;;;;2.48;100.00;101405.34;5053197;28;20481;-80
2021/10/13 03:15:39;;;;;;;0.10;0.10;;;;;;;2.46;100.00;101416.31;5037983;28;20053;-79
2021/10/13 03:18:16;;;;;;;0.20;0.20;;;;;;;2.41;100.00;101402.66;5071127;28;20488;-80
2021/10/13 03:20:51;;;;;;;0.30;0.30;;;;;;;2.36;100.00;101410.50;5069343;28;20051;-82
2021/10/13 03:23:25;;;;;;;0.20;0.20;;;;;;;2.37;100.00;101417.53;5051087;28;20049;-80
2021/10/13 03:26:05;;;;;;;0.20;0.20;;;;;;;2.34;100.00;101408.03;5052402;28;20045;-80
2021/10/13 03:28:39;;;;;;;0.20;0.20;;;;;;;2.16;100.00;101397.91;5068232;28;20052;-79
2021/10/13 03:31:13;;;;;;;0.10;0.10;;;;;;;2.33;100.00;101418.97;5051412;28;20060;-80
2021/10/13 03:33:50;;;;;;;0.20;0.20;;;;;;;2.27;100.00;101417.13;5051074;28;20452;-81
2021/10/13 03:36:23;;;;;;;0.30;0.30;;;;;;;2.17;100.00;101413.00;5046292;28;20048;-78
2021/10/13 03:38:51;;;;;;;0.20;0.20;;;;;;;2.21;100.00;101427.66;5069298;28;20044;-81
2021/10/13 03:41:24;;;;;;;0.20;0.20;;;;;;;2.17;100.00;101412.19;5066041;28;20502;-80
2021/10/13 03:43:52;;;;;;;0.20;0.20;;;;;;;1.93;100.00;101392.09;5049456;28;20052;-80
2021/10/13 03:46:25;;;;;;;0.20;0.20;;;;;;;2.10;100.00;101414.84;5051670;28;20059;-80
2021/10/13 03:49:00;;;;;;;0.20;0.20;;;;;;;1.99;100.00;101428.84;5057815;28;20047;-80
2021/10/13 03:51:34;;;;;;;0.10;0.10;;;;;;;2.01;100.00;101435.69;5048039;28;20045;-80
2021/10/13 03:54:07;;;;;;;0.20;0.20;;;;;;;1.98;100.00;101435.28;5068139;28;20378;-81
2021/10/13 03:56:40;;;;;;;0.22;0.22;;;;;;;2.01;100.00;101443.72;5068759;28;20138;-80
2021/10/13 03:59:13;;;;;;;0.20;0.20;;;;;;;1.81;100.00;101418.72;5070100;28;20044;-79
2021/10/13 04:01:46;;;;;;;0.20;0.20;;;;;;;1.96;100.00;101451.59;5069674;28;21406;-81
2021/10/13 04:04:21;;;;;;;0.20;0.20;;;;;;;1.90;100.00;101443.53;5068172;28;20048;-80
2021/10/13 04:06:54;;;;;;;0.20;0.20;;;;;;;1.84;100.00;101447.84;5067132;28;20047;-79
2021/10/13 04:09:27;;;;;;;0.20;0.20;;;;;;;1.76;100.00;101450.72;5065343;28;20438;-81
2021/10/13 04:12:00;;;;;;;0.10;0.10;;;;;;;1.69;100.00;101438.09;5044753;28;20055;-81
2021/10/13 04:14:33;;;;;;;0.20;0.20;;;;;;;1.75;100.00;101451.75;5046309;28;20052;-81
2021/10/13 04:17:06;;;;;;;0.10;0.10;;;;;;;1.66;100.00;101461.84;5043858;28;20419;-79
2021/10/13 04:19:41;;;;;;;0.20;0.20;;;;;;;1.62;100.00;101455.22;5050729;28;20052;-80
2021/10/13 04:22:09;;;;;;;0.10;0.10;;;;;;;1.64;100.00;101454.00;5066423;28;20044;-82
2021/10/13 04:24:42;;;;;;;0.20;0.20;;;;;;;1.60;100.00;101450.06;5048284;28;20052;-79
2021/10/13 04:27:15;;;;;;;0.20;0.20;;;;;;;1.63;100.00;101456.84;5047458;28;20499;-82
2021/10/13 04:29:48;;;;;;;0.20;0.20;;;;;;;1.65;100.00;101460.97;5063373;28;20404;-80
2021/10/13 04:32:21;;;;;;;0.10;0.10;;;;;;;1.65;100.00;101447.56;5045424;28;20045;-81
2021/10/13 04:34:56;;;;;;;0.10;0.10;;;;;;;1.63;100.00;101440.75;5068378;28;20416;-79
2021/10/13 04:37:24;;;;;;;0.20;0.20;;;;;;;1.78;100.00;101452.16;5066534;28;20048;-83
2021/10/13 04:39:57;;;;;;;0.20;0.20;;;;;;;1.81;100.00;101445.53;5047654;28;20052;-82
2021/10/13 04:42:31;;;;;;;0.10;0.10;;;;;;;1.80;100.00;101450.09;5041361;28;20045;-80
2021/10/13 04:45:04;;;;;;;0.20;0.20;;;;;;;1.70;100.00;101433.56;5045772;28;20044;-81
2021/10/13 04:47:38;;;;;;;0.10;0.10;;;;;;;1.81;100.00;101449.06;5045045;28;20052;-80
2021/10/13 04:50:12;;;;;;;0.10;0.10;;;;;;;1.81;100.00;101448.22;5051032;28;20048;-79
2021/10/13 04:52:45;;;;;;;0.20;0.20;;;;;;;1.81;100.00;101443.72;5068628;28;20051;-80
2021/10/13 04:55:19;;;;;;;0.20;0.20;;;;;;;1.84;100.00;101440.59;5043232;28;20060;-80
2021/10/13 04:57:52;;;;;;;0.10;0.10;;;;;;;1.92;100.00;101446.81;5046725;28;20060;-81
2021/10/13 05:00:20;;;;;;;0.15;0.15;;;;;;;1.85;100.00;101430.69;5048648;28;20527;-80
2021/10/13 05:02:54;;;;;;;0.20;0.20;;;;;;;1.92;100.00;101439.59;5044284;28;20047;-80
2021/10/13 05:05:28;;;;;;;0.20;0.20;;;;;;;1.90;100.00;101440.84;5063391;28;20057;-80
2021/10/13 05:08:01;;;;;;;0.10;0.10;;;;;;;1.88;100.00;101438.34;5067790;28;20056;-80
2021/10/13 05:10:29;;;;;;;0.10;0.10;;;;;;;1.85;100.00;101441.44;5054640;28;20060;-80
2021/10/13 05:13:02;;;;;;;0.20;0.20;;;;;;;1.93;100.00;101435.88;5051671;28;20056;-79
2021/10/13 05:15:36;;;;;;;0.10;0.10;;;;;;;1.87;100.00;101436.69;5052629;28;20055;-79
2021/10/13 05:18:10;;;;;;;0.10;0.10;;;;;;;1.86;100.00;101435.88;5059344;28;20441;-79
2021/10/13 05:20:45;;;;;;;0.10;0.10;;;;;;;1.83;100.00;101432.75;5072199;28;20048;-81
2021/10/13 05:23:18;;;;;;;0.20;0.20;;;;;;;1.85;100.00;101444.09;5049656;28;20362;-79
2021/10/13 05:25:46;;;;;;;0.20;0.20;;;;;;;1.89;100.00;101449.91;5051677;28;20048;-79
2021/10/13 05:28:14;;;;;;;0.20;0.20;;;;;;;1.83;100.00;101447.00;5040612;28;20409;-80
2021/10/13 05:30:47;;;;;;;0.10;0.10;;;;;;;1.82;100.00;101450.75;5067357;28;20412;-79
2021/10/13 05:33:21;;;;;;;0.20;0.20;;;;;;;1.88;100.00;101459.84;5050182;28;20051;-81
2021/10/13 05:35:55;;;;;;;0.20;0.20;;;;;;;1.89;100.00;101460.66;5065792;28;20052;-80
2021/10/13 05:38:28;;;;;;;0.17;0.17;;;;;;;1.89;100.00;101453.41;5068423;28;20049;-80
2021/10/13 05:41:01;;;;;;;0.20;0.20;;;;;;;1.89;100.00;101469.50;5049153;28;20048;-79
2021/10/13 05:43:34;;;;;;;0.20;0.20;;;;;;;1.95;100.00;101473.28;5058980;28;20048;-80
2021/10/13 05:46:07;;;;;;;0.20;0.20;;;;;;;1.95;100.00;101468.72;5043557;28;20123;-80
2021/10/13 05:48:36;;;;;;;0.20;0.20;;;;;;;2.01;100.00;101480.50;5050661;28;20059;-79
2021/10/13 05:51:10;;;;;;;0.20;0.20;;;;;;;1.99;100.00;101478.03;5042081;28;20049;-81
2021/10/13 05:53:43;;;;;;;0.20;0.20;;;;;;;1.95;100.00;101478.66;5043584;28;20057;-79
2021/10/13 05:56:16;;;;;;;0.20;0.20;;;;;;;2.02;100.00;101485.66;5065737;28;20045;-79
2021/10/13 05:58:52;;;;;;;0.13;0.13;;;;;;;2.02;100.00;101487.53;5050374;28;20056;-79
2021/10/13 06:01:25;;;;;;;0.20;0.20;;;;;;;2.04;100.00;101491.69;5044198;28;20059;-82
2021/10/13 06:03:54;;;;;;;0.13;0.13;;;;;;;2.10;100.00;101484.66;5065965;28;20041;-79
2021/10/13 06:06:28;;;;;;;0.20;0.20;;;;;;;2.15;100.00;101482.16;5067685;28;20419;-79
2021/10/13 06:09:01;;;;;;;0.10;0.10;;;;;;;2.16;100.00;101477.66;5070770;28;20059;-79
2021/10/13 06:11:35;;;;;;;0.20;0.20;;;;;;;2.16;100.00;101494.56;5052549;28;20060;-79
2021/10/13 06:14:03;;;;;;;0.20;0.20;;;;;;;2.20;100.00;101487.75;5050377;28;20754;-81
2021/10/13 06:16:37;;;;;;;0.13;0.13;;;;;;;2.33;100.00;101496.88;5051991;28;20060;-80
2021/10/13 06:19:10;;;;;;;0.20;0.20;;;;;;;2.38;100.00;101497.09;5045482;28;20381;-80
2021/10/13 06:21:44;;;;;;;0.20;0.20;;;;;;;2.34;100.00;101490.47;5046126;28;20083;-81
2021/10/13 06:24:17;;;;;;;0.20;0.20;;;;;;;2.35;100.00;101490.28;5045191;28;20056;-79
2021/10/13 06:26:51;;;;;;;0.10;0.10;;;;;;;2.38;100.00;101484.47;5047122;28;20056;-81
2021/10/13 06:29:24;;;;;;;0.20;0.20;;;;;;;2.39;100.00;101509.50;5047895;28;20497;-80
2021/10/13 06:31:57;;;;;;;0.20;0.20;;;;;;;2.53;100.00;101502.28;5061814;28;20060;-80
2021/10/13 06:34:30;;;;;;;0.20;0.20;;;;;;;2.54;100.00;101498.53;5062789;28;20052;-80
2021/10/13 06:37:05;;;;;;;0.20;0.20;;;;;;;2.57;100.00;101506.22;5048259;28;20074;-80
2021/10/13 06:39:38;;;;;;;0.10;0.10;;;;;;;2.65;100.00;101516.75;5064558;28;20052;-81
2021/10/13 06:42:11;;;;;;;0.20;0.20;;;;;;;2.63;100.00;101516.13;5045507;28;20056;-79
2021/10/13 06:44:44;;;;;;;0.20;0.20;;;;;;;2.67;100.00;101514.69;5069491;28;20048;-81
2021/10/13 06:47:17;;;;;;;0.17;0.17;;;;;;;2.76;100.00;101519.84;5055176;28;20404;-81
2021/10/13 06:49:51;;;;;;;0.20;0.20;;;;;;;2.75;100.00;101516.34;5055753;28;20063;-80
2021/10/13 06:52:21;;;;;;;0.13;0.13;;;;;;;2.83;100.00;101517.97;5075034;28;20053;-79
2021/10/13 06:54:54;;;;;;;0.20;0.20;;;;;;;2.83;100.00;101516.13;5055113;28;20063;-80
2021/10/13 06:57:27;;;;;;;0.20;0.20;;;;;;;2.85;100.00;101521.31;5072945;28;20518;-79
2021/10/13 07:00:00;;;;;;;0.20;0.20;;;;;;;2.98;100.00;101532.03;5055952;28;20057;-80
2021/10/13 07:02:33;;;;;;;0.15;0.15;;;;;;;2.91;100.00;101522.34;5049117;28;20053;-80
2021/10/13 07:05:01;;;;;;;0.20;0.20;;;;;;;3.04;100.00;101527.72;5055736;28;20531;-78
2021/10/13 07:07:32;;;;;;;0.20;0.20;;;;;;;3.07;100.00;101527.28;5052748;28;20052;-80
2021/10/13 07:10:05;;;;;;;0.20;0.20;;;;;;;3.09;100.00;101533.25;5053217;28;20045;-79
2021/10/13 07:12:39;;;;;;;0.20;0.20;;;;;;;3.14;100.00;101529.97;5053616;28;20049;-81
2021/10/13 07:15:13;;;;;;;0.20;0.20;;;;;;;3.17;100.00;101543.81;5064166;28;20052;-79
2021/10/13 07:17:49;;;;;;;0.20;0.20;;;;;;;3.26;100.00;101548.97;5073778;28;20480;-80
2021/10/13 07:20:23;;;;;;;0.20;0.20;;;;;;;3.34;100.00;101554.97;5034487;28;20056;-80
2021/10/13 07:22:58;;;;;;;0.10;0.10;;;;;;;3.38;100.00;101545.44;5039422;28;20872;-81
2021/10/13 07:25:27;;;;;;;0.10;0.10;;;;;;;3.41;100.00;101552.25;5037812;28;20049;-80
2021/10/13 07:27:57;;;;;;;0.20;0.20;;;;;;;3.46;100.00;101557.84;5039696;28;20056;-80
2021/10/13 07:30:31;;;;;;;0.20;0.20;;;;;;;3.55;100.00;101561.13;5042527;28;20064;-79
2021/10/13 07:33:00;;;;;;;0.20;0.20;;;;;;;3.59;100.00;101557.00;5039808;28;20052;-82
2021/10/13 07:35:35;;;;;;;0.20;0.20;;;;;;;3.59;100.00;101562.38;5048776;28;20049;-81
2021/10/13 07:38:12;;;;;;;0.20;0.20;;;;;;;3.70;100.00;101558.16;5040677;28;20056;-80
2021/10/13 07:40:41;;;;;;;0.20;0.20;;;;;;;3.72;100.00;101556.13;5046502;28;20476;-81
2021/10/13 07:43:09;;;;;;;0.20;0.20;;;;;;;3.85;100.00;101564.16;5038450;28;20061;-80
2021/10/13 07:45:41;;;;;;;0.20;0.20;;;;;;;3.92;100.00;101566.78;5033450;28;20060;-80
2021/10/13 07:48:09;;;;;;;0.10;0.10;;;;;;;3.97;100.00;101569.69;5035927;28;20061;-79
2021/10/13 07:50:37;;;;;;;0.20;0.20;;;;;;;4.14;100.00;101572.69;5036713;28;20060;-79
2021/10/13 07:53:12;;;;;;;0.20;0.20;;;;;;;4.27;100.00;101579.91;5055038;28;20416;-80
2021/10/13 07:55:45;;;;;;;0.10;0.10;;;;;;;4.33;100.00;101576.34;5023914;28;20267;-78
2021/10/13 07:58:14;;;;;;;0.20;0.20;;;;;;;4.36;100.00;101569.69;5036654;28;20056;-81
2021/10/13 08:00:52;;;;;;;0.20;0.20;;;;;;;4.45;100.00;101573.78;5048447;28;20060;-80
2021/10/13 08:03:25;;;;;;;0.20;0.20;;;;;;;4.43;100.00;101570.47;5040384;28;20060;-79
2021/10/13 08:05:58;;;;;;;0.13;0.13;;;;;;;4.55;100.00;101570.63;5046847;28;20060;-80
2021/10/13 08:08:33;;;;;;;0.20;0.20;;;;;;;4.69;100.00;101569.47;5029611;28;20068;-83
2021/10/13 08:11:08;;;;;;;0.17;0.17;;;;;;;4.73;100.00;101570.69;5025527;28;20052;-80
2021/10/13 08:13:42;;;;;;;0.20;0.20;;;;;;;4.77;100.00;101577.28;5043337;28;20067;-79
2021/10/13 08:16:15;;;;;;;0.10;0.10;;;;;;;4.89;100.00;101576.59;5022782;28;20068;-82
2021/10/13 08:18:48;;;;;;;0.20;0.20;;;;;;;4.97;100.00;101565.50;5042387;28;20055;-81
2021/10/13 08:21:22;;;;;;;0.20;0.20;;;;;;;5.00;100.00;101578.59;5049836;28;20053;-79
2021/10/13 08:23:56;;;;;;;0.20;0.20;;;;;;;5.16;100.00;101579.06;5041855;28;20353;-81
2021/10/13 08:26:30;;;;;;;0.13;0.13;;;;;;;5.11;100.00;101575.16;5043731;28;20235;-82
2021/10/13 08:29:03;;;;;;;0.10;0.10;;;;;;;5.19;100.00;101579.47;5050557;28;20040;-83
2021/10/13 08:31:37;;;;;;;0.20;0.20;;;;;;;5.34;100.00;101579.09;5046860;28;20663;-82
2021/10/13 08:34:15;;;;;;;0.17;0.17;;;;;;;5.42;100.00;101572.59;5037485;28;20056;-81
2021/10/13 08:36:48;;;;;;;0.10;0.10;;;;;;;5.52;100.00;101580.19;5038233;28;20052;-80
2021/10/13 08:39:22;;;;;;;0.20;0.20;;;;;;;5.58;100.00;101577.41;5038133;28;20056;-79
2021/10/13 08:42:00;;;;;;;0.20;0.20;;;;;;;5.55;100.00;101577.03;5036000;28;20067;-80
2021/10/13 08:44:31;;;;;;;0.20;0.20;;;;;;;5.68;100.00;101582.28;5038427;28;20056;-84
2021/10/13 08:47:04;;;;;;;0.20;0.20;;;;;;;5.78;100.00;101585.28;5024830;28;20320;-79
2021/10/13 08:49:38;;;;;;;0.20;0.20;;;;;;;5.92;100.00;101590.53;5044666;28;21715;-81
2021/10/13 08:52:12;;;;;;;0.10;0.10;;;;;;;5.99;100.00;101601.28;5023893;28;20420;-80
2021/10/13 08:54:42;;;;;;;0.20;0.20;;;;;;;6.09;100.00;101601.56;5022590;28;20083;-84
2021/10/13 08:57:16;;;;;;;0.20;0.20;;;;;;;6.28;100.00;101599.66;5048194;28;20242;-81
2021/10/13 08:59:47;;;;;;;0.20;0.20;;;;;;;6.49;100.00;101603.78;5032372;28;20056;-81
2021/10/13 09:02:37;;;;;;;0.20;0.20;;;;;;;6.63;100.00;101599.00;5042774;28;20044;-80
2021/10/13 09:05:12;;;;;;;0.20;0.20;;;;;;;6.67;100.00;101594.78;5040617;28;20564;-81
2021/10/13 09:07:49;;;;;;;0.20;0.20;;;;;;;6.58;100.00;101585.34;5045483;28;21641;-81
2021/10/13 09:10:30;;;;;;;0.20;0.20;;;;;;;6.54;100.00;101598.47;5030118;28;20056;-81
2021/10/13 09:13:04;;;;;;;0.20;0.20;;;;;;;6.68;100.00;101590.19;5044667;28;21726;-83
2021/10/13 09:15:39;;;;;;;0.20;0.20;;;;;;;6.78;100.00;101591.28;5031604;28;20166;-84
2021/10/13 09:18:08;;;;;;;0.15;0.15;;;;;;;6.97;100.00;101596.59;5038463;28;20052;-82
2021/10/13 09:20:43;;;;;;;0.20;0.20;;;;;;;7.13;100.00;101590.50;5041190;28;20057;-80
2021/10/13 09:23:20;;;;;;;0.13;0.13;;;;;;;7.30;100.00;101597.91;5034674;28;20059;-85
2021/10/13 09:26:07;;;;;;;0.20;0.20;;;;;;;7.47;100.00;101592.59;5056621;28;20052;-81
2021/10/13 09:28:42;;;;;;;0.20;0.20;;;;;;;7.72;100.00;101599.66;5033358;28;20060;-82
2021/10/13 09:31:17;;;;;;;0.20;0.20;;;;;;;7.88;100.00;101584.56;5053846;28;20060;-82
2021/10/13 09:33:55;;;;;;;0.20;0.20;;;;;;;7.89;100.00;101581.59;5034248;28;20057;-84
2021/10/13 09:36:36;;;;;;;0.20;0.20;;;;;;;7.82;100.00;101580.91;5036653;28;20059;-80
2021/10/13 09:39:14;;;;;;;0.20;0.20;;;;;;;7.80;100.00;101569.47;5033272;28;20052;-85
2021/10/13 09:42:01;;;;;;;0.20;0.20;;;;;;;8.00;100.00;101580.72;5030580;28;20067;-81
2021/10/13 09:44:37;;;;;;;0.10;0.10;;;;;;;7.97;100.00;101583.13;5034833;28;20049;-80
2021/10/13 09:47:11;;;;;;;0.20;0.20;;;;;;;7.92;100.00;101572.16;5060007;28;20064;-82
2021/10/13 09:49:49;;;;;;;0.13;0.13;;;;;;;8.08;100.00;101576.84;5054101;28;20045;-82
2021/10/13 09:52:27;;;;;;;0.15;0.15;;;;;;;8.15;100.00;101569.38;5040575;28;20238;-83
2021/10/13 09:55:08;;;;;;;0.20;0.20;;;;;;;8.18;100.00;101565.34;5045446;28;20447;-85
2021/10/13 09:57:44;;;;;;;0.30;0.30;;;;;;;8.12;100.00;101574.44;5033444;28;20511;-80
2021/10/13 10:00:22;;;;;;;0.22;0.22;;;;;;;8.20;100.00;101571.34;5033116;28;20048;-82
2021/10/13 10:02:58;;;;;;;0.20;0.20;;;;;;;8.14;100.00;101567.72;5035092;28;20060;-84
2021/10/13 10:05:31;;;;;;;0.20;0.20;;;;;;;8.07;100.00;101547.25;5031849;28;20510;-81
2021/10/13 10:08:01;;;;;;;0.22;0.22;;;;;;;8.23;100.00;101564.63;5051782;28;20052;-83
2021/10/13 10:10:35;;;;;;;0.20;0.20;;;;;;;8.20;100.00;101574.06;5031825;28;20056;-83
2021/10/13 10:13:35;;;;;;;0.10;0.10;;;;;;;8.43;100.00;101583.19;5053253;28;20477;-80
2021/10/13 10:16:10;;;;;;;0.17;0.17;;;;;;;8.61;100.00;101569.41;5040702;28;20048;-84
2021/10/13 10:19:21;;;;;;;0.20;0.20;;;;;;;8.85;100.00;101564.69;5060023;28;20075;-81
2021/10/13 10:21:56;;;;;;;0.20;0.20;;;;;;;9.03;100.00;101568.19;5059773;28;20056;-82
2021/10/13 10:24:31;;;;;;;0.20;0.20;;;;;;;9.13;100.00;101581.94;5058042;28;20757;-80
2021/10/13 10:27:28;;;;;;;0.20;0.20;;;;;;;9.31;100.00;101594.44;5042279;28;20063;-85
2021/10/13 10:30:15;;;;;;;0.20;0.20;;;;;;;9.37;100.00;101587.19;5043417;28;20136;-83
2021/10/13 10:33:19;;;;;;;0.20;0.20;;;;;;;9.43;100.00;101590.81;5054656;28;20060;-81
2021/10/13 10:35:53;;;;;;;0.20;0.20;;;;;;;9.45;100.00;101589.47;5025463;28;20866;-80
2021/10/13 10:38:49;;;;;;;0.20;0.20;;;;;;;9.69;100.00;101594.69;5024310;28;20526;-83
2021/10/13 10:41:17;;;;;;;0.10;0.10;;;;;;;9.66;100.00;101595.22;5028494;28;20064;-80
2021/10/13 10:43:46;;;;;;;0.17;0.17;;;;;;;9.72;100.00;101585.22;5024022;28;20083;-81
2021/10/13 10:46:16;;;;;;;0.13;0.13;;;;;;;9.65;100.00;101580.81;5046102;28;20808;-84
2021/10/13 10:48:49;;;;;;;0.22;0.22;;;;;;;9.75;100.00;101579.28;5030075;28;20048;-82
2021/10/13 10:51:23;;;;;;;0.20;0.20;;;;;;;9.72;100.00;101569.72;5027284;28;20053;-83
2021/10/13 10:53:58;;;;;;;0.20;0.20;;;;;;;9.73;100.00;101570.56;5031851;28;20379;-81
2021/10/13 10:56:30;;;;;;;0.20;0.20;;;;;;;9.79;100.00;101573.09;5025754;28;20063;-82
2021/10/13 10:59:07;;;;;;;0.20;0.20;;;;;;;9.80;100.00;101563.84;5046850;28;20056;-84
2021/10/13 11:01:37;;;;;;;0.20;0.20;;;;;;;9.63;100.00;101571.25;5030079;28;20059;-85
2021/10/13 11:04:11;;;;;;;0.20;0.20;;;;;;;9.72;100.00;101566.19;5029895;28;20056;-84
2021/10/13 11:06:44;;;;;;;0.20;0.20;;;;;;;9.83;100.00;101570.69;5034164;28;20053;-85
2021/10/13 11:09:24;;;;;;;0.20;0.20;;;;;;;9.82;100.00;101569.06;5043951;28;20051;-82
2021/10/13 11:11:52;;;;;;;0.10;0.10;;;;;;;9.80;100.00;101577.44;5049891;28;20059;-81
2021/10/13 11:14:24;;;;;;;0.20;0.20;;;;;;;9.86;100.00;101576.44;5047677;28;20056;-84
2021/10/13 11:17:46;;;;;;;0.20;0.20;;;;;;;9.85;100.00;101572.06;5055500;28;20496;-82
2021/10/13 11:20:24;;;;;;;0.20;0.20;;;;;;;9.84;100.00;101569.63;5061660;28;20115;-82
2021/10/13 11:22:58;;;;;;;0.20;0.20;;;;;;;9.70;100.00;101558.28;5038488;28;20051;-85
2021/10/13 11:25:28;;;;;;;0.20;0.20;;;;;;;9.84;100.00;101585.94;5065932;28;20866;-84
2021/10/13 11:28:06;;;;;;;0.20;0.20;;;;;;;9.79;100.00;101580.41;5060900;28;20059;-82
2021/10/13 11:30:40;;;;;;;0.13;0.13;;;;;;;9.85;100.00;101582.13;5039043;28;20060;-82
2021/10/13 11:33:15;;;;;;;0.10;0.10;;;;;;;10.14;100.00;101582.75;5057183;28;20048;-82
2021/10/13 11:35:50;;;;;;;0.20;0.20;;;;;;;10.19;100.00;101582.81;5054350;28;20452;-80
2021/10/13 11:38:23;;;;;;;0.17;0.17;;;;;;;10.10;100.00;101569.94;5056742;28;20045;-79
2021/10/13 11:41:07;;;;;;;0.20;0.20;;;;;;;9.81;100.00;101572.84;5059916;28;20044;-83
2021/10/13 11:43:42;;;;;;;0.20;0.20;;;;;;;9.72;100.00;101577.06;5048516;28;20500;-84
2021/10/13 11:46:16;;;;;;;0.20;0.20;;;;;;;9.72;100.00;101568.91;5052348;28;20068;-83
2021/10/13 11:48:49;;;;;;;0.20;0.20;;;;;;;9.69;100.00;101565.63;5048770;28;20422;-84
2021/10/13 11:51:23;;;;;;;0.20;0.20;;;;;;;9.76;100.00;101579.03;5036673;28;20056;-86
2021/10/13 11:53:52;;;;;;;0.20;0.20;;;;;;;9.68;100.00;101564.00;5027597;28;20056;-82
2021/10/13 11:56:25;;;;;;;0.20;0.20;;;;;;;9.56;100.00;101568.72;5045832;28;20052;-81
2021/10/13 11:59:11;;;;;;;0.20;0.20;;;;;;;9.49;100.00;101555.31;5041565;28;20059;-81